createdAt,value
2023-10-09T00:00:41.916Z,2.40
2023-10-09T00:01:47.449Z,2.25
2023-10-09T00:02:49.729Z,2.40
2023-10-09T00:03:55.435Z,2.10
2023-10-09T00:04:58.057Z,2.13
2023-10-09T00:06:00.398Z,1.92
2023-10-09T00:07:04.130Z,2.80
2023-10-09T00:08:06.447Z,3.97
2023-10-09T00:09:18.248Z,6.00
2023-10-09T00:10:20.540Z,3.63
2023-10-09T00:11:22.572Z,4.63
2023-10-09T00:12:25.192Z,4.57
2023-10-09T00:13:32.451Z,2.72
2023-10-09T00:14:35.422Z,2.90
2023-10-09T00:15:37.369Z,2.97
2023-10-09T00:16:48.453Z,2.63
2023-10-09T00:17:50.480Z,2.65
2023-10-09T00:18:54.514Z,2.45
2023-10-09T00:20:00.908Z,2.47
2023-10-09T00:21:13.609Z,2.20
2023-10-09T00:22:25.686Z,2.03
2023-10-09T00:23:29.448Z,1.80
2023-10-09T00:24:34.108Z,2.03
2023-10-09T00:25:37.361Z,2.15
2023-10-09T00:26:45.513Z,2.03
2023-10-09T00:27:49.011Z,1.80
2023-10-09T00:28:52.379Z,1.92
2023-10-09T00:29:56.658Z,1.70
2023-10-09T00:30:58.559Z,2.55
2023-10-09T00:32:18.639Z,2.20
2023-10-09T00:33:23.334Z,2.63
2023-10-09T00:34:27.481Z,2.67
2023-10-09T00:35:39.037Z,2.30
2023-10-09T00:36:51.549Z,2.60
2023-10-09T00:37:58.491Z,2.95
2023-10-09T00:39:12.165Z,2.70
2023-10-09T00:40:23.961Z,2.20
2023-10-09T00:41:26.563Z,2.55
2023-10-09T00:42:30.767Z,2.72
2023-10-09T00:43:33.634Z,2.33
2023-10-09T00:44:42.906Z,2.80
2023-10-09T00:45:45.952Z,2.30
2023-10-09T00:46:48.526Z,2.15
2023-10-09T00:47:50.988Z,2.47
2023-10-09T00:49:03.662Z,3.08
2023-10-09T00:50:30.242Z,2.70
2023-10-09T00:51:39.711Z,2.40
2023-10-09T00:52:51.694Z,2.53
2023-10-09T00:54:28.051Z,2.65
2023-10-09T00:55:56.794Z,2.90
2023-10-09T00:57:07.679Z,2.38
2023-10-09T00:58:15.332Z,2.55
2023-10-09T00:59:21.252Z,2.40
2023-10-09T01:00:46.728Z,2.85
2023-10-09T01:01:58.292Z,2.25
2023-10-09T01:03:14.564Z,3.25
2023-10-09T01:04:18.870Z,2.70
2023-10-09T01:05:21.551Z,2.25
2023-10-09T01:06:28.830Z,2.90
2023-10-09T01:07:33.021Z,2.90
2023-10-09T01:08:41.128Z,3.10
2023-10-09T01:09:50.880Z,2.78
2023-10-09T01:10:57.314Z,2.75
2023-10-09T01:12:01.854Z,3.25
2023-10-09T01:13:04.476Z,2.90
2023-10-09T01:14:09.426Z,2.75
2023-10-09T01:15:37.064Z,2.35
2023-10-09T01:16:43.826Z,2.95
2023-10-09T01:17:46.939Z,3.45
2023-10-09T01:18:58.645Z,2.45
2023-10-09T01:20:04.641Z,2.70
2023-10-09T01:21:06.649Z,3.05
2023-10-09T01:22:15.925Z,2.88
2023-10-09T01:23:19.811Z,2.60
2023-10-09T01:24:23.939Z,3.03
2023-10-09T01:25:26.374Z,2.92
2023-10-09T01:26:33.356Z,2.80
2023-10-09T01:27:35.556Z,2.80
2023-10-09T01:28:37.824Z,2.55
2023-10-09T01:29:43.061Z,3.40
2023-10-09T01:30:45.335Z,2.70
2023-10-09T01:31:56.551Z,3.17
2023-10-09T01:33:01.515Z,2.67
2023-10-09T01:34:05.093Z,3.38
2023-10-09T01:35:21.014Z,3.10
2023-10-09T01:36:32.569Z,3.05
2023-10-09T01:37:38.053Z,3.03
2023-10-09T01:38:44.173Z,2.95
2023-10-09T01:39:56.387Z,2.83
2023-10-09T01:41:08.046Z,3.10
2023-10-09T01:42:11.033Z,3.58
2023-10-09T01:43:13.618Z,3.28
2023-10-09T01:44:17.220Z,3.33
2023-10-09T01:45:21.898Z,3.60
2023-10-09T01:46:24.297Z,3.00
2023-10-09T01:47:32.791Z,3.25
2023-10-09T01:48:40.634Z,3.60
2023-10-09T01:49:44.706Z,3.30
2023-10-09T01:50:49.648Z,2.72
2023-10-09T01:51:52.561Z,3.33
2023-10-09T01:52:54.439Z,3.22
2023-10-09T01:53:58.152Z,3.25
2023-10-09T01:55:04.988Z,3.30
2023-10-09T01:56:16.541Z,3.25
2023-10-09T01:57:25.200Z,3.25
2023-10-09T01:58:28.359Z,3.53
2023-10-09T01:59:30.418Z,3.30
2023-10-09T02:00:43.710Z,3.45
2023-10-09T02:01:49.097Z,3.45
2023-10-09T02:02:51.752Z,3.08
2023-10-09T02:03:55.646Z,3.80
2023-10-09T02:05:10.489Z,2.90
2023-10-09T02:06:29.052Z,3.40
2023-10-09T02:07:41.186Z,3.15
2023-10-09T02:08:50.645Z,3.85
2023-10-09T02:09:55.053Z,3.40
2023-10-09T02:10:57.896Z,3.00
2023-10-09T02:11:59.826Z,3.85
2023-10-09T02:13:08.583Z,3.67
2023-10-09T02:14:20.194Z,3.17
2023-10-09T02:15:42.233Z,3.90
2023-10-09T02:16:44.404Z,3.55
2023-10-09T02:18:09.068Z,3.90
2023-10-09T02:19:30.987Z,3.60
2023-10-09T02:20:37.563Z,3.20
2023-10-09T02:21:42.838Z,3.55
2023-10-09T02:22:44.978Z,3.38
2023-10-09T02:23:58.154Z,3.25
2023-10-09T02:25:00.357Z,2.80
2023-10-09T02:26:07.142Z,2.95
2023-10-09T02:27:12.495Z,3.25
2023-10-09T02:28:20.394Z,4.03
2023-10-09T02:29:25.220Z,3.58
2023-10-09T02:30:30.549Z,3.40
2023-10-09T02:31:41.895Z,3.70
2023-10-09T02:32:45.714Z,3.60
2023-10-09T02:33:47.670Z,3.42
2023-10-09T02:34:52.049Z,4.15
2023-10-09T02:36:00.510Z,3.42
2023-10-09T02:37:07.445Z,4.28
2023-10-09T02:38:11.280Z,4.35
2023-10-09T02:39:25.429Z,3.80
2023-10-09T02:40:40.822Z,3.72
2023-10-09T02:41:50.607Z,3.40
2023-10-09T02:42:53.293Z,3.70
2023-10-09T02:44:11.507Z,3.80
2023-10-09T02:45:17.604Z,3.97
2023-10-09T02:46:30.581Z,4.18
2023-10-09T02:47:38.795Z,4.03
2023-10-09T02:48:46.651Z,4.10
2023-10-09T02:49:49.553Z,3.58
2023-10-09T02:50:51.800Z,4.00
2023-10-09T02:51:56.735Z,3.95
2023-10-09T02:53:02.048Z,3.63
2023-10-09T02:54:19.786Z,4.35
2023-10-09T02:55:26.930Z,3.97
2023-10-09T02:56:38.666Z,4.35
2023-10-09T02:57:44.753Z,4.07
2023-10-09T02:58:49.231Z,3.95
2023-10-09T02:59:52.602Z,4.28
2023-10-09T03:00:54.654Z,4.47
2023-10-09T03:01:56.529Z,3.97
2023-10-09T03:02:59.502Z,4.40
2023-10-09T03:04:03.941Z,4.30
2023-10-09T03:05:07.024Z,4.13
2023-10-09T03:06:12.380Z,4.35
2023-10-09T03:07:15.373Z,4.32
2023-10-09T03:08:20.166Z,4.70
2023-10-09T03:09:28.937Z,3.85
2023-10-09T03:10:32.300Z,4.40
2023-10-09T03:11:36.588Z,3.80
2023-10-09T03:12:40.416Z,4.10
2023-10-09T03:13:45.813Z,4.00
2023-10-09T03:14:48.224Z,3.83
2023-10-09T03:15:52.957Z,4.60
2023-10-09T03:16:54.972Z,4.18
2023-10-09T03:17:56.955Z,4.07
2023-10-09T03:18:58.920Z,4.05
2023-10-09T03:20:13.070Z,3.90
2023-10-09T03:21:18.344Z,3.83
2023-10-09T03:22:20.454Z,4.35
2023-10-09T03:23:22.361Z,4.07
2023-10-09T03:24:28.406Z,3.92
2023-10-09T03:25:30.695Z,3.80
2023-10-09T03:26:32.637Z,3.60
2023-10-09T03:27:35.471Z,3.80
2023-10-09T03:28:37.703Z,4.20
2023-10-09T03:29:39.658Z,3.60
2023-10-09T03:30:45.082Z,3.78
2023-10-09T03:31:47.657Z,3.42
2023-10-09T03:32:55.150Z,3.60
2023-10-09T03:33:57.384Z,3.78
2023-10-09T03:35:01.300Z,3.67
2023-10-09T03:36:08.367Z,4.00
2023-10-09T03:37:22.419Z,4.00
2023-10-09T03:38:24.286Z,3.28
2023-10-09T03:39:48.259Z,3.80
2023-10-09T03:40:50.232Z,3.63
2023-10-09T03:41:55.417Z,3.45
2023-10-09T03:42:57.439Z,3.85
2023-10-09T03:43:59.765Z,3.97
2023-10-09T03:45:01.721Z,3.95
2023-10-09T03:46:06.046Z,4.30
2023-10-09T03:47:11.434Z,3.80
2023-10-09T03:48:21.902Z,3.53
2023-10-09T03:49:27.144Z,3.53
2023-10-09T03:50:38.860Z,3.78
2023-10-09T03:51:41.158Z,4.00
2023-10-09T03:52:43.194Z,3.70
2023-10-09T03:53:45.063Z,3.30
2023-10-09T03:54:47.808Z,4.30
2023-10-09T03:55:50.469Z,4.13
2023-10-09T03:56:52.482Z,3.80
2023-10-09T03:58:01.083Z,3.50
2023-10-09T03:59:05.430Z,3.65
2023-10-09T04:00:14.930Z,4.15
2023-10-09T04:01:38.733Z,3.80
2023-10-09T04:02:40.766Z,3.63
2023-10-09T04:03:42.758Z,2.95
2023-10-09T04:04:49.267Z,3.53
2023-10-09T04:05:54.559Z,4.07
2023-10-09T04:06:56.588Z,3.60
2023-10-09T04:08:03.110Z,3.45
2023-10-09T04:09:19.403Z,3.25
2023-10-09T04:10:48.115Z,3.53
2023-10-09T04:12:11.635Z,3.63
2023-10-09T04:13:18.646Z,3.70
2023-10-09T04:14:25.922Z,3.42
2023-10-09T04:15:31.756Z,6.35
2023-10-09T04:16:33.697Z,5.97
2023-10-09T04:17:36.236Z,6.82
2023-10-09T04:18:39.977Z,4.28
2023-10-09T04:19:49.305Z,4.60
2023-10-09T04:21:10.057Z,6.38
2023-10-09T04:22:26.918Z,4.20
2023-10-09T04:23:57.620Z,3.58
2023-10-09T04:24:59.543Z,4.43
2023-10-09T04:26:11.614Z,3.80
2023-10-09T04:27:14.155Z,4.88
2023-10-09T04:28:16.119Z,3.50
2023-10-09T04:29:28.142Z,3.83
2023-10-09T04:30:30.603Z,3.70
2023-10-09T04:31:38.298Z,3.08
2023-10-09T04:32:41.376Z,3.22
2023-10-09T04:33:55.256Z,3.20
2023-10-09T04:35:17.303Z,2.90
2023-10-09T04:36:22.206Z,2.72
2023-10-09T04:37:40.116Z,2.80
2023-10-09T04:38:56.451Z,2.50
2023-10-09T04:40:24.601Z,5.55
2023-10-09T04:41:29.523Z,3.00
2023-10-09T04:42:37.732Z,3.13
2023-10-09T04:43:45.612Z,3.45
2023-10-09T04:45:03.747Z,3.13
2023-10-09T04:46:24.348Z,3.05
2023-10-09T04:47:38.115Z,3.40
2023-10-09T04:48:40.794Z,3.70
2023-10-09T04:50:05.799Z,3.80
2023-10-09T04:51:23.914Z,3.00
2023-10-09T04:52:31.442Z,3.00
2023-10-09T04:53:40.351Z,3.65
2023-10-09T04:55:02.314Z,4.50
2023-10-09T04:56:06.440Z,3.85
2023-10-09T04:57:19.082Z,3.70
2023-10-09T04:58:27.014Z,3.15
2023-10-09T04:59:34.124Z,3.75
2023-10-09T05:00:36.388Z,3.50
2023-10-09T05:01:44.866Z,2.78
2023-10-09T05:02:55.912Z,3.47
2023-10-09T05:04:04.130Z,3.15
2023-10-09T05:05:39.340Z,3.17
2023-10-09T05:06:44.060Z,3.00
2023-10-09T05:07:58.337Z,3.15
2023-10-09T05:09:09.341Z,2.88
2023-10-09T05:10:16.066Z,3.30
2023-10-09T05:11:54.093Z,2.80
2023-10-09T05:12:58.850Z,3.75
2023-10-09T05:14:12.875Z,2.90
2023-10-09T05:15:15.796Z,3.15
2023-10-09T05:16:20.949Z,3.28
2023-10-09T05:17:26.793Z,2.80
2023-10-09T05:18:37.404Z,2.90
2023-10-09T05:19:55.906Z,4.10
2023-10-09T05:21:07.120Z,3.53
2023-10-09T05:22:31.024Z,3.20
2023-10-09T05:23:45.438Z,4.20
2023-10-09T05:24:48.366Z,3.17
2023-10-09T05:26:00.073Z,2.92
2023-10-09T05:27:20.419Z,3.38
2023-10-09T05:28:46.425Z,4.20
2023-10-09T05:30:00.784Z,4.03
2023-10-09T05:31:09.429Z,3.45
2023-10-09T05:32:14.189Z,4.00
2023-10-09T05:33:28.976Z,4.30
2023-10-09T05:34:35.851Z,4.55
2023-10-09T05:36:03.404Z,3.90
2023-10-09T05:37:18.744Z,4.18
2023-10-09T05:38:26.434Z,4.25
2023-10-09T05:39:42.396Z,4.10
2023-10-09T05:40:46.580Z,4.30
2023-10-09T05:41:53.876Z,3.90
2023-10-09T05:43:04.038Z,4.68
2023-10-09T05:44:24.617Z,3.78
2023-10-09T05:45:51.470Z,3.42
2023-10-09T05:47:11.919Z,4.30
2023-10-09T05:48:13.997Z,4.03
2023-10-09T05:49:25.721Z,4.75
2023-10-09T05:50:29.870Z,3.70
2023-10-09T05:51:44.033Z,4.03
2023-10-09T05:52:55.054Z,3.58
2023-10-09T05:54:12.711Z,4.85
2023-10-09T05:55:20.604Z,3.67
2023-10-09T05:56:41.181Z,3.97
2023-10-09T05:58:05.595Z,4.20
2023-10-09T05:59:07.536Z,4.53
2023-10-09T06:00:29.479Z,4.15
2023-10-09T06:01:49.623Z,4.82
2023-10-09T06:03:09.995Z,4.05
2023-10-09T06:04:18.986Z,5.38
2023-10-09T06:05:39.747Z,3.70
2023-10-09T06:06:57.896Z,4.07
2023-10-09T06:08:07.859Z,4.03
2023-10-09T06:09:10.701Z,4.55
2023-10-09T06:10:19.912Z,4.75
2023-10-09T06:11:33.806Z,4.25
2023-10-09T06:12:44.678Z,4.30
2023-10-09T06:13:47.127Z,5.43
2023-10-09T06:14:58.996Z,4.20
2023-10-09T06:16:19.697Z,4.85
2023-10-09T06:17:24.629Z,4.10
2023-10-09T06:18:35.916Z,4.00
2023-10-09T06:19:44.838Z,3.40
2023-10-09T06:21:05.363Z,3.40
2023-10-09T06:22:13.613Z,3.22
2023-10-09T06:23:18.429Z,3.90
2023-10-09T06:24:25.007Z,3.67
2023-10-09T06:25:34.175Z,3.97
2023-10-09T06:26:36.803Z,4.10
2023-10-09T06:27:44.387Z,4.32
2023-10-09T06:28:51.001Z,4.30
2023-10-09T06:29:59.712Z,4.10
2023-10-09T06:31:24.758Z,4.78
2023-10-09T06:32:26.717Z,3.60
2023-10-09T06:33:51.554Z,4.05
2023-10-09T06:35:22.382Z,4.43
2023-10-09T06:36:32.325Z,3.92
2023-10-09T06:37:34.300Z,4.97
2023-10-09T06:38:53.345Z,5.00
2023-10-09T06:39:58.025Z,4.35
2023-10-09T06:41:05.867Z,4.72
2023-10-09T06:42:30.792Z,5.45
2023-10-09T06:43:34.689Z,3.83
2023-10-09T06:44:54.896Z,3.88
2023-10-09T06:45:59.652Z,4.90
2023-10-09T06:47:09.076Z,4.90
2023-10-09T06:48:33.420Z,4.93
2023-10-09T06:49:37.590Z,5.80
2023-10-09T06:50:59.373Z,4.40
2023-10-09T06:52:16.203Z,4.30
2023-10-09T06:53:20.933Z,4.38
2023-10-09T06:54:30.918Z,4.10
2023-10-09T06:55:51.092Z,4.78
2023-10-09T06:56:55.905Z,4.35
2023-10-09T06:58:02.388Z,3.55
2023-10-09T06:59:17.133Z,4.18
2023-10-09T07:00:37.842Z,4.50
2023-10-09T07:01:39.954Z,4.25
2023-10-09T07:02:47.705Z,3.88
2023-10-09T07:04:01.038Z,3.90
2023-10-09T07:05:14.017Z,3.90
2023-10-09T07:06:26.744Z,3.80
2023-10-09T07:07:28.727Z,4.45
2023-10-09T07:08:38.241Z,3.90
2023-10-09T07:09:58.743Z,4.20
2023-10-09T07:11:28.756Z,4.03
2023-10-09T07:12:33.973Z,3.70
2023-10-09T07:13:38.273Z,3.25
2023-10-09T07:14:40.239Z,3.50
2023-10-09T07:16:02.997Z,3.63
2023-10-09T07:17:18.035Z,3.60
2023-10-09T07:18:21.057Z,3.25
2023-10-09T07:19:41.175Z,4.60
2023-10-09T07:21:00.268Z,3.88
2023-10-09T07:22:05.422Z,4.10
2023-10-09T07:23:16.774Z,4.30
2023-10-09T07:24:22.398Z,3.90
2023-10-09T07:25:42.069Z,4.10
2023-10-09T07:26:54.099Z,3.70
2023-10-09T07:27:56.643Z,4.70
2023-10-09T07:29:17.379Z,4.32
2023-10-09T07:30:31.094Z,8.52
2023-10-09T07:31:41.231Z,5.55
2023-10-09T07:32:44.712Z,5.20
2023-10-09T07:33:53.473Z,4.20
2023-10-09T07:34:55.644Z,4.60
2023-10-09T07:36:00.636Z,4.20
2023-10-09T07:37:05.291Z,5.13
2023-10-09T07:38:10.443Z,5.32
2023-10-09T07:39:16.787Z,5.22
2023-10-09T07:40:19.220Z,6.10
2023-10-09T07:41:21.211Z,5.10
2023-10-09T07:42:41.519Z,4.65
2023-10-09T07:43:46.734Z,3.90
2023-10-09T07:44:54.348Z,5.15
2023-10-09T07:45:59.936Z,4.95
2023-10-09T07:47:18.287Z,4.35
2023-10-09T07:48:26.816Z,4.72
2023-10-09T07:49:32.060Z,5.30
2023-10-09T07:50:42.392Z,4.57
2023-10-09T07:51:48.152Z,5.05
2023-10-09T07:52:50.936Z,4.30
2023-10-09T07:53:58.580Z,4.25
2023-10-09T07:55:03.916Z,5.47
2023-10-09T07:56:09.712Z,4.90
2023-10-09T07:57:17.138Z,5.60
2023-10-09T07:58:25.956Z,5.05
2023-10-09T07:59:32.265Z,5.38
2023-10-09T08:00:37.638Z,5.10
2023-10-09T08:01:57.479Z,4.82
2023-10-09T08:03:01.835Z,3.70
2023-10-09T08:04:12.289Z,5.53
2023-10-09T08:05:20.936Z,6.85
2023-10-09T08:06:43.204Z,4.70
2023-10-09T08:08:39.943Z,4.15
2023-10-09T08:09:48.257Z,4.30
2023-10-09T08:11:08.992Z,4.75
2023-10-09T08:12:29.540Z,4.50
2023-10-09T08:14:03.610Z,3.70
2023-10-09T08:15:34.329Z,3.85
2023-10-09T08:16:39.416Z,4.90
2023-10-09T08:17:49.403Z,4.57
2023-10-09T08:18:52.809Z,5.07
2023-10-09T08:19:54.924Z,4.88
2023-10-09T08:20:59.636Z,5.45
2023-10-09T08:22:20.225Z,4.93
2023-10-09T08:23:34.328Z,4.97
2023-10-09T08:25:05.330Z,6.20
2023-10-09T08:26:29.449Z,5.15
2023-10-09T08:27:32.270Z,4.40
2023-10-09T08:28:46.627Z,4.78
2023-10-09T08:29:49.057Z,4.70
2023-10-09T08:31:03.912Z,4.00
2023-10-09T08:34:15.501Z,4.97
2023-10-09T08:36:09.270Z,4.78
2023-10-09T08:37:13.887Z,4.05
2023-10-09T08:38:27.905Z,4.70
2023-10-09T08:39:34.621Z,5.53
2023-10-09T08:40:41.081Z,4.30
2023-10-09T08:41:43.121Z,6.43
2023-10-09T08:42:55.150Z,6.43
2023-10-09T08:43:58.892Z,5.18
2023-10-09T08:45:06.244Z,5.80
2023-10-09T08:46:08.668Z,4.97
2023-10-09T08:47:12.143Z,4.10
2023-10-09T08:48:18.952Z,4.20
2023-10-09T08:49:22.702Z,4.30
2023-10-09T08:50:29.894Z,4.40
2023-10-09T08:51:33.920Z,4.50
2023-10-09T08:52:38.699Z,5.25
2023-10-09T08:53:44.056Z,6.50
2023-10-09T08:54:46.018Z,5.40
2023-10-09T08:55:48.448Z,7.10
2023-10-09T08:56:53.010Z,6.05
2023-10-09T08:57:56.990Z,4.88
2023-10-09T08:59:00.562Z,4.15
2023-10-09T09:00:02.998Z,4.60
2023-10-09T09:01:05.956Z,4.68
2023-10-09T09:02:12.255Z,4.75
2023-10-09T09:03:17.753Z,4.32
2023-10-09T09:04:40.310Z,4.38
2023-10-09T09:05:50.873Z,5.38
2023-10-09T09:06:54.377Z,4.80
2023-10-09T09:07:57.522Z,11.00
2023-10-09T09:09:16.490Z,4.97
2023-10-09T09:10:19.206Z,4.78
2023-10-09T09:11:25.445Z,4.40
2023-10-09T09:12:31.787Z,4.70
2023-10-09T09:13:35.360Z,4.80
2023-10-09T09:14:39.714Z,4.30
2023-10-09T09:15:41.886Z,4.55
2023-10-09T09:16:49.274Z,3.80
2023-10-09T09:17:51.676Z,4.80
2023-10-09T09:19:18.264Z,4.43
2023-10-09T09:20:32.986Z,4.43
2023-10-09T09:21:41.873Z,4.05
2023-10-09T09:22:57.372Z,4.07
2023-10-09T09:24:02.792Z,4.53
2023-10-09T09:25:10.263Z,4.50
2023-10-09T09:26:13.254Z,4.43
2023-10-09T09:27:21.838Z,5.32
2023-10-09T09:28:24.450Z,4.57
2023-10-09T09:29:43.433Z,4.80
2023-10-09T09:30:49.161Z,4.50
2023-10-09T09:32:17.265Z,3.70
2023-10-09T09:33:28.082Z,4.00
2023-10-09T09:34:30.634Z,4.05
2023-10-09T09:35:33.470Z,4.38
2023-10-09T09:36:35.993Z,3.90
2023-10-09T09:37:43.881Z,4.57
2023-10-09T09:38:50.746Z,4.05
2023-10-09T09:39:56.313Z,4.50
2023-10-09T09:41:03.621Z,4.45
2023-10-09T09:42:26.342Z,3.92
2023-10-09T09:43:32.188Z,4.20
2023-10-09T09:44:44.522Z,4.18
2023-10-09T09:45:47.397Z,4.20
2023-10-09T09:46:51.178Z,4.38
2023-10-09T09:47:55.359Z,4.93
2023-10-09T09:49:18.037Z,5.55
2023-10-09T09:50:30.462Z,4.65
2023-10-09T09:51:35.771Z,4.32
2023-10-09T09:52:41.230Z,4.55
2023-10-09T09:53:49.384Z,4.28
2023-10-09T09:54:51.307Z,4.10
2023-10-09T09:55:59.442Z,4.60
2023-10-09T09:57:09.582Z,4.25
2023-10-09T09:58:24.654Z,4.88
2023-10-09T09:59:31.771Z,4.45
2023-10-09T10:00:44.159Z,4.72
2023-10-09T10:01:57.860Z,4.65
2023-10-09T10:03:20.756Z,4.70
2023-10-09T10:04:24.189Z,4.78
2023-10-09T10:05:31.248Z,4.82
2023-10-09T10:06:35.476Z,4.50
2023-10-09T10:07:44.316Z,4.63
2023-10-09T10:08:52.211Z,4.75
2023-10-09T10:09:55.833Z,4.70
2023-10-09T10:11:07.286Z,5.18
2023-10-09T10:12:13.029Z,11.07
2023-10-09T10:13:29.180Z,7.20
2023-10-09T10:15:00.626Z,5.20
2023-10-09T10:16:25.710Z,4.90
2023-10-09T10:17:31.590Z,5.20
2023-10-09T10:18:36.254Z,5.10
2023-10-09T10:20:20.295Z,5.20
2023-10-09T10:21:33.769Z,7.43
2023-10-09T10:22:38.951Z,5.88
2023-10-09T10:23:41.609Z,6.78
2023-10-09T10:24:53.440Z,5.55
2023-10-09T10:26:01.462Z,5.60
2023-10-09T10:27:27.589Z,8.63
2023-10-09T10:28:30.401Z,6.65
2023-10-09T10:29:35.325Z,5.93
2023-10-09T10:30:47.634Z,6.25
2023-10-09T10:32:08.070Z,5.53
2023-10-09T10:33:28.708Z,6.65
2023-10-09T10:35:07.405Z,5.78
2023-10-09T10:36:10.110Z,6.03
2023-10-09T10:37:14.402Z,5.60
2023-10-09T10:38:38.363Z,6.13
2023-10-09T10:40:00.409Z,5.80
2023-10-09T10:41:20.433Z,6.50
2023-10-09T10:42:37.724Z,6.50
2023-10-09T10:43:54.352Z,6.65
2023-10-09T10:44:57.895Z,6.40
2023-10-09T10:46:24.475Z,7.18
2023-10-09T10:47:36.194Z,6.38
2023-10-09T10:48:38.894Z,6.85
2023-10-09T10:49:45.997Z,6.85
2023-10-09T10:50:48.299Z,6.40
2023-10-09T10:52:02.276Z,7.22
2023-10-09T10:53:18.305Z,6.32
2023-10-09T10:54:47.114Z,6.47
2023-10-09T10:56:15.371Z,6.72
2023-10-09T10:57:21.085Z,6.72
2023-10-09T10:58:26.240Z,6.85
2023-10-09T10:59:42.802Z,9.48
2023-10-09T11:00:58.353Z,8.00
2023-10-09T11:02:21.344Z,6.50
2023-10-09T11:03:36.771Z,7.10
2023-10-09T11:04:41.344Z,6.95
2023-10-09T11:05:51.589Z,6.15
2023-10-09T11:06:53.902Z,5.95
2023-10-09T11:07:59.618Z,6.25
2023-10-09T11:09:10.016Z,6.90
2023-10-09T11:10:27.699Z,5.90
2023-10-09T11:11:33.770Z,6.38
2023-10-09T11:12:43.686Z,7.22
2023-10-09T11:13:55.399Z,7.95
2023-10-09T11:15:07.537Z,6.82
2023-10-09T11:16:16.069Z,10.77
2023-10-09T11:17:26.254Z,8.77
2023-10-09T11:18:28.713Z,7.57
2023-10-09T11:19:32.820Z,7.25
2023-10-09T11:20:37.676Z,7.07
2023-10-09T11:21:43.853Z,7.25
2023-10-09T11:23:06.888Z,7.25
2023-10-09T11:24:25.387Z,5.80
2023-10-09T11:25:27.632Z,6.35
2023-10-09T11:26:32.048Z,5.80
2023-10-09T11:27:40.839Z,7.40
2023-10-09T11:28:58.355Z,7.97
2023-10-09T11:30:20.263Z,8.10
2023-10-09T11:31:23.934Z,7.40
2023-10-09T11:32:27.996Z,7.63
2023-10-09T11:33:54.973Z,8.40
2023-10-09T11:35:28.566Z,7.05
2023-10-09T11:36:35.869Z,7.57
2023-10-09T11:37:43.787Z,8.50
2023-10-09T11:38:46.907Z,7.10
2023-10-09T11:39:54.970Z,7.50
2023-10-09T11:40:58.981Z,6.70
2023-10-09T11:42:15.436Z,7.32
2023-10-09T11:43:17.404Z,7.93
2023-10-09T11:44:35.060Z,7.30
2023-10-09T11:45:39.163Z,7.47
2023-10-09T11:46:50.367Z,7.50
2023-10-09T11:48:01.250Z,6.95
2023-10-09T11:49:26.921Z,7.30
2023-10-09T11:50:53.661Z,7.78
2023-10-09T11:52:09.799Z,8.80
2023-10-09T11:53:24.844Z,9.23
2023-10-09T11:54:37.285Z,8.85
2023-10-09T11:55:39.293Z,8.65
2023-10-09T11:56:41.201Z,7.97
2023-10-09T11:57:43.420Z,7.32
2023-10-09T11:58:51.091Z,7.53
2023-10-09T11:59:53.428Z,7.50
2023-10-09T12:01:00.701Z,7.25
2023-10-09T12:02:05.280Z,7.90
2023-10-09T12:03:07.453Z,8.20
2023-10-09T12:04:10.653Z,7.20
2023-10-09T12:05:18.212Z,6.57
2023-10-09T12:06:33.235Z,7.43
2023-10-09T12:07:39.368Z,7.80
2023-10-09T12:08:44.149Z,7.60
2023-10-09T12:09:46.380Z,8.55
2023-10-09T12:10:49.306Z,8.77
2023-10-09T12:12:03.153Z,8.15
2023-10-09T12:13:08.638Z,8.80
2023-10-09T12:14:11.162Z,9.15
2023-10-09T12:15:18.446Z,8.80
2023-10-09T12:16:20.420Z,9.38
2023-10-09T12:17:26.942Z,8.95
2023-10-09T12:18:29.590Z,8.23
2023-10-09T12:19:32.139Z,9.32
2023-10-09T12:20:36.432Z,9.07
2023-10-09T12:21:43.971Z,8.98
2023-10-09T12:22:45.936Z,9.35
2023-10-09T12:23:48.557Z,8.55
2023-10-09T12:24:50.674Z,8.77
2023-10-09T12:25:57.747Z,8.40
2023-10-09T12:27:01.039Z,8.93
2023-10-09T12:28:04.302Z,9.00
2023-10-09T12:29:12.189Z,8.40
2023-10-09T12:30:15.022Z,8.30
2023-10-09T12:31:22.077Z,8.82
2023-10-09T12:32:24.148Z,8.68
2023-10-09T12:33:29.074Z,8.60
2023-10-09T12:34:32.203Z,8.40
2023-10-09T12:35:39.830Z,7.65
2023-10-09T12:36:44.819Z,8.02
2023-10-09T12:37:47.955Z,9.35
2023-10-09T12:38:54.025Z,8.88
2023-10-09T12:39:57.890Z,10.05
2023-10-09T12:41:40.364Z,9.05
2023-10-09T12:42:42.273Z,9.77
2023-10-09T12:43:44.292Z,8.57
2023-10-09T12:44:46.276Z,8.23
2023-10-09T12:45:48.256Z,11.00
2023-10-09T12:46:56.122Z,9.90
2023-10-09T12:48:00.354Z,8.40
2023-10-09T12:49:02.670Z,8.60
2023-10-09T12:50:14.941Z,8.20
2023-10-09T12:51:18.097Z,7.90
2023-10-09T12:52:20.913Z,8.20
2023-10-09T12:53:22.921Z,9.55
2023-10-09T12:54:29.595Z,7.80
2023-10-09T12:55:35.685Z,8.43
2023-10-09T12:56:40.884Z,8.05
2023-10-09T12:57:42.777Z,8.10
2023-10-09T12:58:54.140Z,7.50
2023-10-09T12:59:56.919Z,8.45
2023-10-09T13:01:10.377Z,8.32
2023-10-09T13:02:29.821Z,7.45
2023-10-09T13:03:34.149Z,7.65
2023-10-09T13:04:41.860Z,7.68
2023-10-09T13:05:54.899Z,8.45
2023-10-09T13:07:03.127Z,8.35
2023-10-09T13:08:05.099Z,8.95
2023-10-09T13:09:07.797Z,9.18
2023-10-09T13:10:10.756Z,8.38
2023-10-09T13:11:17.728Z,9.65
2023-10-09T13:12:20.215Z,10.02
2023-10-09T13:13:22.480Z,9.32
2023-10-09T13:14:24.424Z,10.05
2023-10-09T13:15:28.846Z,9.23
2023-10-09T13:16:32.738Z,9.30
2023-10-09T13:17:36.060Z,10.35
2023-10-09T13:18:39.875Z,10.18
2023-10-09T13:19:41.886Z,10.40
2023-10-09T13:20:45.986Z,9.35
2023-10-09T13:21:49.630Z,10.00
2023-10-09T13:22:54.021Z,9.95
2023-10-09T13:23:56.082Z,10.95
2023-10-09T13:25:04.820Z,9.65
2023-10-09T13:26:29.698Z,10.00
2023-10-09T13:27:35.357Z,9.48
2023-10-09T13:28:38.844Z,10.18
2023-10-09T13:29:43.614Z,10.15
2023-10-09T13:30:50.345Z,10.07
2023-10-09T13:31:58.949Z,10.50
2023-10-09T13:33:06.633Z,10.00
2023-10-09T13:34:11.131Z,10.50
2023-10-09T13:35:14.928Z,10.63
2023-10-09T13:36:43.321Z,10.88
2023-10-09T13:37:55.066Z,11.00
2023-10-09T13:39:20.681Z,11.20
2023-10-09T13:40:29.771Z,10.95
2023-10-09T13:41:31.668Z,11.30
2023-10-09T13:42:36.387Z,12.05
2023-10-09T13:43:44.919Z,11.63
2023-10-09T13:44:49.871Z,12.50
2023-10-09T13:45:52.014Z,11.45
2023-10-09T13:47:04.062Z,12.68
2023-10-09T13:48:06.193Z,11.68
2023-10-09T13:49:15.800Z,12.48
2023-10-09T13:50:22.692Z,11.65
2023-10-09T13:51:25.591Z,11.27
2023-10-09T13:52:28.073Z,13.07
2023-10-09T13:53:30.895Z,12.00
2023-10-09T13:54:35.694Z,11.98
2023-10-09T13:55:44.926Z,11.80
2023-10-09T13:56:47.744Z,11.45
2023-10-09T13:57:49.609Z,11.02
2023-10-09T13:58:53.240Z,10.68
2023-10-09T13:59:57.050Z,11.70
2023-10-09T14:00:59.414Z,11.40
2023-10-09T14:02:03.806Z,10.93
2023-10-09T14:03:13.395Z,11.20
2023-10-09T14:04:21.901Z,10.77
2023-10-09T14:05:24.298Z,11.27
2023-10-09T14:06:33.860Z,12.20
2023-10-09T14:07:36.153Z,10.32
2023-10-09T14:08:43.198Z,10.75
2023-10-09T14:09:45.982Z,11.18
2023-10-09T14:10:49.557Z,11.20
2023-10-09T14:11:53.451Z,11.05
2023-10-09T14:12:56.659Z,10.95
2023-10-09T14:14:11.416Z,11.13
2023-10-09T14:15:18.606Z,10.88
2023-10-09T14:16:28.841Z,10.85
2023-10-09T14:17:30.943Z,9.88
2023-10-09T14:18:32.942Z,9.93
2023-10-09T14:19:35.058Z,9.68
2023-10-09T14:20:37.433Z,9.55
2023-10-09T14:21:41.150Z,9.68
2023-10-09T14:22:43.086Z,9.30
2023-10-09T14:23:47.847Z,11.80
2023-10-09T14:24:56.524Z,9.40
2023-10-09T14:26:02.935Z,9.90
2023-10-09T14:27:05.431Z,10.70
2023-10-09T14:28:09.884Z,9.93
2023-10-09T14:29:17.578Z,9.68
2023-10-09T14:30:33.311Z,9.45
2023-10-09T14:31:40.044Z,9.43
2023-10-09T14:32:52.949Z,10.05
2023-10-09T14:33:57.547Z,10.35
2023-10-09T14:35:02.823Z,11.57
2023-10-09T14:36:06.892Z,9.18
2023-10-09T14:37:11.448Z,9.93
2023-10-09T14:38:13.474Z,10.00
2023-10-09T14:39:20.128Z,9.43
2023-10-09T14:40:30.689Z,10.57
2023-10-09T14:41:34.356Z,10.50
2023-10-09T14:42:37.495Z,12.18
2023-10-09T14:43:40.801Z,10.25
2023-10-09T14:44:46.070Z,10.27
2023-10-09T14:45:54.666Z,10.45
2023-10-09T14:46:57.044Z,10.73
2023-10-09T14:48:01.262Z,9.98
2023-10-09T14:49:06.267Z,11.02
2023-10-09T14:50:10.593Z,10.55
2023-10-09T14:51:14.487Z,10.27
2023-10-09T14:52:21.822Z,10.60
2023-10-09T14:53:28.018Z,11.77
2023-10-09T14:54:30.259Z,11.35
2023-10-09T14:55:32.981Z,11.73
2023-10-09T14:56:37.691Z,10.90
2023-10-09T14:57:39.609Z,10.93
2023-10-09T14:58:41.838Z,10.98
2023-10-09T14:59:47.270Z,11.20
2023-10-09T15:00:49.304Z,11.15
2023-10-09T15:01:51.626Z,11.20
2023-10-09T15:02:54.064Z,10.75
2023-10-09T15:04:02.457Z,11.75
2023-10-09T15:05:05.751Z,10.02
2023-10-09T15:06:11.664Z,11.45
2023-10-09T15:07:26.561Z,10.57
2023-10-09T15:08:39.036Z,10.27
2023-10-09T15:09:42.349Z,10.50
2023-10-09T15:10:57.283Z,10.18
2023-10-09T15:11:59.529Z,10.93
2023-10-09T15:13:01.463Z,10.38
2023-10-09T15:14:05.929Z,11.07
2023-10-09T15:15:14.550Z,12.52